sensor_id;sensor_type;location;lat;lon;timestamp;P1;durP1;ratioP1;P2;durP2;ratioP2
77591;SDS011;66891;46.884;17.436;2023-08-08T00:01:45;5.63;;;0.80;;
77591;SDS011;66891;46.884;17.436;2023-08-08T00:04:13;4.53;;;0.50;;
77591;SDS011;66891;46.884;17.436;2023-08-08T00:06:40;6.00;;;0.80;;
77591;SDS011;66891;46.884;17.436;2023-08-08T00:09:07;5.57;;;0.80;;
77591;SDS011;66891;46.884;17.436;2023-08-08T00:11:35;4.72;;;0.73;;
77591;SDS011;66891;46.884;17.436;2023-08-08T00:14:02;5.82;;;0.85;;
77591;SDS011;66891;46.884;17.436;2023-08-08T00:16:29;5.13;;;0.85;;
77591;SDS011;66891;46.884;17.436;2023-08-08T00:18:58;5.55;;;0.75;;
77591;SDS011;66891;46.884;17.436;2023-08-08T00:21:26;6.03;;;0.80;;
77591;SDS011;66891;46.884;17.436;2023-08-08T00:23:53;5.13;;;0.60;;
77591;SDS011;66891;46.884;17.436;2023-08-08T00:26:20;4.63;;;0.73;;
77591;SDS011;66891;46.884;17.436;2023-08-08T00:28:48;5.57;;;0.80;;
77591;SDS011;66891;46.884;17.436;2023-08-08T00:31:15;5.40;;;0.80;;
77591;SDS011;66891;46.884;17.436;2023-08-08T00:33:44;4.93;;;0.87;;
77591;SDS011;66891;46.884;17.436;2023-08-08T00:36:13;5.00;;;0.90;;
77591;SDS011;66891;46.884;17.436;2023-08-08T00:38:40;5.28;;;0.70;;
77591;SDS011;66891;46.884;17.436;2023-08-08T00:41:08;6.10;;;0.80;;
77591;SDS011;66891;46.884;17.436;2023-08-08T00:43:35;5.28;;;0.80;;
77591;SDS011;66891;46.884;17.436;2023-08-08T00:46:02;5.90;;;0.80;;
77591;SDS011;66891;46.884;17.436;2023-08-08T00:48:30;5.35;;;0.70;;
77591;SDS011;66891;46.884;17.436;2023-08-08T00:50:58;4.90;;;0.85;;
77591;SDS011;66891;46.884;17.436;2023-08-08T00:53:27;5.03;;;0.70;;
77591;SDS011;66891;46.884;17.436;2023-08-08T00:55:58;4.78;;;0.80;;
77591;SDS011;66891;46.884;17.436;2023-08-08T00:58:26;7.07;;;1.10;;
77591;SDS011;66891;46.884;17.436;2023-08-08T01:00:54;5.82;;;0.90;;
77591;SDS011;66891;46.884;17.436;2023-08-08T01:03:24;5.20;;;0.70;;
77591;SDS011;66891;46.884;17.436;2023-08-08T01:05:53;5.13;;;0.90;;
77591;SDS011;66891;46.884;17.436;2023-08-08T01:08:32;5.75;;;0.77;;
77591;SDS011;66891;46.884;17.436;2023-08-08T01:11:05;4.93;;;0.73;;
77591;SDS011;66891;46.884;17.436;2023-08-08T01:13:33;5.07;;;0.60;;
77591;SDS011;66891;46.884;17.436;2023-08-08T01:16:01;4.93;;;0.80;;
77591;SDS011;66891;46.884;17.436;2023-08-08T01:18:31;4.90;;;0.85;;
77591;SDS011;66891;46.884;17.436;2023-08-08T01:21:00;5.72;;;0.90;;
77591;SDS011;66891;46.884;17.436;2023-08-08T01:23:33;5.37;;;0.60;;
77591;SDS011;66891;46.884;17.436;2023-08-08T01:26:07;5.45;;;0.90;;
77591;SDS011;66891;46.884;17.436;2023-08-08T01:28:34;5.15;;;0.90;;
77591;SDS011;66891;46.884;17.436;2023-08-08T01:31:02;4.18;;;0.60;;
77591;SDS011;66891;46.884;17.436;2023-08-08T01:33:29;4.82;;;0.68;;
77591;SDS011;66891;46.884;17.436;2023-08-08T01:35:58;6.40;;;0.90;;
77591;SDS011;66891;46.884;17.436;2023-08-08T01:38:32;5.07;;;0.90;;
77591;SDS011;66891;46.884;17.436;2023-08-08T01:41:03;3.97;;;0.65;;
77591;SDS011;66891;46.884;17.436;2023-08-08T01:43:34;4.93;;;0.50;;
77591;SDS011;66891;46.884;17.436;2023-08-08T01:46:04;5.53;;;0.60;;
77591;SDS011;66891;46.884;17.436;2023-08-08T01:48:33;3.57;;;0.50;;
77591;SDS011;66891;46.884;17.436;2023-08-08T01:51:00;4.72;;;0.50;;
77591;SDS011;66891;46.884;17.436;2023-08-08T01:53:28;4.60;;;0.45;;
77591;SDS011;66891;46.884;17.436;2023-08-08T01:55:55;4.47;;;0.73;;
77591;SDS011;66891;46.884;17.436;2023-08-08T01:58:22;4.80;;;0.50;;
77591;SDS011;66891;46.884;17.436;2023-08-08T02:00:51;4.03;;;0.50;;
77591;SDS011;66891;46.884;17.436;2023-08-08T02:03:18;4.45;;;0.50;;
77591;SDS011;66891;46.884;17.436;2023-08-08T02:05:46;3.90;;;0.50;;
77591;SDS011;66891;46.884;17.436;2023-08-08T02:08:13;4.00;;;0.50;;
77591;SDS011;66891;46.884;17.436;2023-08-08T02:10:41;3.53;;;0.55;;
77591;SDS011;66891;46.884;17.436;2023-08-08T02:13:08;6.27;;;0.83;;
77591;SDS011;66891;46.884;17.436;2023-08-08T02:15:36;4.63;;;0.60;;
77591;SDS011;66891;46.884;17.436;2023-08-08T02:18:05;4.63;;;0.57;;
77591;SDS011;66891;46.884;17.436;2023-08-08T02:20:34;5.10;;;0.70;;
77591;SDS011;66891;46.884;17.436;2023-08-08T02:23:01;3.97;;;0.60;;
77591;SDS011;66891;46.884;17.436;2023-08-08T02:25:29;4.87;;;0.60;;
77591;SDS011;66891;46.884;17.436;2023-08-08T02:27:57;4.53;;;0.80;;
77591;SDS011;66891;46.884;17.436;2023-08-08T02:30:24;5.70;;;0.70;;
77591;SDS011;66891;46.884;17.436;2023-08-08T02:32:52;6.35;;;0.70;;
77591;SDS011;66891;46.884;17.436;2023-08-08T02:35:20;4.57;;;0.70;;
77591;SDS011;66891;46.884;17.436;2023-08-08T02:37:48;9.07;;;0.97;;
77591;SDS011;66891;46.884;17.436;2023-08-08T02:40:15;4.35;;;0.80;;
77591;SDS011;66891;46.884;17.436;2023-08-08T02:42:42;4.65;;;0.65;;
77591;SDS011;66891;46.884;17.436;2023-08-08T02:45:10;5.47;;;0.82;;
77591;SDS011;66891;46.884;17.436;2023-08-08T02:47:37;4.57;;;0.90;;
77591;SDS011;66891;46.884;17.436;2023-08-08T02:50:05;4.70;;;0.83;;
77591;SDS011;66891;46.884;17.436;2023-08-08T02:52:34;3.67;;;0.60;;
77591;SDS011;66891;46.884;17.436;2023-08-08T02:55:01;5.32;;;1.00;;
77591;SDS011;66891;46.884;17.436;2023-08-08T02:57:29;6.70;;;0.90;;
77591;SDS011;66891;46.884;17.436;2023-08-08T02:59:56;5.50;;;1.05;;
77591;SDS011;66891;46.884;17.436;2023-08-08T03:02:24;4.43;;;0.93;;
77591;SDS011;66891;46.884;17.436;2023-08-08T03:04:51;4.03;;;0.82;;
77591;SDS011;66891;46.884;17.436;2023-08-08T03:07:18;5.32;;;0.80;;
77591;SDS011;66891;46.884;17.436;2023-08-08T03:09:47;7.60;;;0.63;;
77591;SDS011;66891;46.884;17.436;2023-08-08T03:12:14;6.97;;;0.90;;
77591;SDS011;66891;46.884;17.436;2023-08-08T03:14:42;7.37;;;0.63;;
77591;SDS011;66891;46.884;17.436;2023-08-08T03:17:09;4.45;;;0.60;;
77591;SDS011;66891;46.884;17.436;2023-08-08T03:19:36;4.65;;;0.80;;
77591;SDS011;66891;46.884;17.436;2023-08-08T03:22:10;5.07;;;0.80;;
77591;SDS011;66891;46.884;17.436;2023-08-08T03:24:40;4.15;;;0.80;;
77591;SDS011;66891;46.884;17.436;2023-08-08T03:27:08;5.37;;;0.70;;
77591;SDS011;66891;46.884;17.436;2023-08-08T03:29:36;5.10;;;0.80;;
77591;SDS011;66891;46.884;17.436;2023-08-08T03:32:04;4.80;;;0.80;;
77591;SDS011;66891;46.884;17.436;2023-08-08T03:34:33;4.35;;;0.70;;
77591;SDS011;66891;46.884;17.436;2023-08-08T03:37:00;4.55;;;0.77;;
77591;SDS011;66891;46.884;17.436;2023-08-08T03:39:27;4.37;;;0.73;;
77591;SDS011;66891;46.884;17.436;2023-08-08T03:41:55;4.97;;;0.65;;
77591;SDS011;66891;46.884;17.436;2023-08-08T03:44:24;5.07;;;0.70;;
77591;SDS011;66891;46.884;17.436;2023-08-08T03:46:52;4.60;;;0.80;;
77591;SDS011;66891;46.884;17.436;2023-08-08T03:49:31;4.60;;;0.90;;
77591;SDS011;66891;46.884;17.436;2023-08-08T03:51:58;6.47;;;0.80;;
77591;SDS011;66891;46.884;17.436;2023-08-08T03:54:26;4.70;;;0.70;;
77591;SDS011;66891;46.884;17.436;2023-08-08T03:56:53;3.92;;;0.60;;
77591;SDS011;66891;46.884;17.436;2023-08-08T03:59:20;4.68;;;1.02;;
77591;SDS011;66891;46.884;17.436;2023-08-08T04:01:49;5.53;;;0.90;;
77591;SDS011;66891;46.884;17.436;2023-08-08T04:04:16;5.03;;;0.80;;
77591;SDS011;66891;46.884;17.436;2023-08-08T04:06:44;4.28;;;0.70;;
77591;SDS011;66891;46.884;17.436;2023-08-08T04:09:11;4.50;;;0.70;;
77591;SDS011;66891;46.884;17.436;2023-08-08T04:11:38;4.80;;;0.63;;
77591;SDS011;66891;46.884;17.436;2023-08-08T04:14:06;3.72;;;0.80;;
77591;SDS011;66891;46.884;17.436;2023-08-08T04:16:33;4.83;;;0.60;;
77591;SDS011;66891;46.884;17.436;2023-08-08T04:19:02;3.88;;;0.60;;
77591;SDS011;66891;46.884;17.436;2023-08-08T04:21:30;4.18;;;0.60;;
77591;SDS011;66891;46.884;17.436;2023-08-08T04:23:59;6.32;;;0.77;;
77591;SDS011;66891;46.884;17.436;2023-08-08T04:26:26;8.80;;;0.90;;
77591;SDS011;66891;46.884;17.436;2023-08-08T04:28:54;4.17;;;1.00;;
77591;SDS011;66891;46.884;17.436;2023-08-08T04:31:22;4.53;;;0.80;;
77591;SDS011;66891;46.884;17.436;2023-08-08T04:33:52;4.75;;;0.60;;
77591;SDS011;66891;46.884;17.436;2023-08-08T04:36:29;4.38;;;0.90;;
77591;SDS011;66891;46.884;17.436;2023-08-08T04:38:57;5.93;;;0.82;;
77591;SDS011;66891;46.884;17.436;2023-08-08T04:41:24;5.00;;;0.87;;
77591;SDS011;66891;46.884;17.436;2023-08-08T04:43:51;5.93;;;1.02;;
77591;SDS011;66891;46.884;17.436;2023-08-08T04:46:19;7.40;;;1.00;;
77591;SDS011;66891;46.884;17.436;2023-08-08T04:48:46;6.95;;;1.50;;
77591;SDS011;66891;46.884;17.436;2023-08-08T04:51:13;5.07;;;1.23;;
77591;SDS011;66891;46.884;17.436;2023-08-08T04:53:42;6.27;;;1.00;;
77591;SDS011;66891;46.884;17.436;2023-08-08T04:56:09;6.05;;;0.90;;
77591;SDS011;66891;46.884;17.436;2023-08-08T04:58:37;5.10;;;1.00;;
77591;SDS011;66891;46.884;17.436;2023-08-08T05:01:04;4.53;;;1.00;;
77591;SDS011;66891;46.884;17.436;2023-08-08T05:03:31;6.20;;;1.25;;
77591;SDS011;66891;46.884;17.436;2023-08-08T05:05:59;8.43;;;2.33;;
77591;SDS011;66891;46.884;17.436;2023-08-08T05:08:27;8.15;;;1.95;;
77591;SDS011;66891;46.884;17.436;2023-08-08T05:10:56;9.70;;;1.75;;
77591;SDS011;66891;46.884;17.436;2023-08-08T05:13:23;9.43;;;1.58;;
77591;SDS011;66891;46.884;17.436;2023-08-08T05:15:50;6.38;;;1.38;;
77591;SDS011;66891;46.884;17.436;2023-08-08T05:18:18;5.17;;;1.10;;
77591;SDS011;66891;46.884;17.436;2023-08-08T05:20:45;6.38;;;1.02;;
77591;SDS011;66891;46.884;17.436;2023-08-08T05:23:13;8.63;;;0.93;;
77591;SDS011;66891;46.884;17.436;2023-08-08T05:25:40;5.00;;;1.05;;
77591;SDS011;66891;46.884;17.436;2023-08-08T05:28:09;6.60;;;0.73;;
77591;SDS011;66891;46.884;17.436;2023-08-08T05:30:36;8.17;;;0.97;;
77591;SDS011;66891;46.884;17.436;2023-08-08T05:33:03;5.05;;;0.63;;
77591;SDS011;66891;46.884;17.436;2023-08-08T05:35:31;4.05;;;0.50;;
77591;SDS011;66891;46.884;17.436;2023-08-08T05:37:58;4.70;;;0.70;;
77591;SDS011;66891;46.884;17.436;2023-08-08T05:40:26;5.93;;;0.70;;
77591;SDS011;66891;46.884;17.436;2023-08-08T05:42:53;6.03;;;1.47;;
77591;SDS011;66891;46.884;17.436;2023-08-08T05:45:22;6.50;;;0.85;;
77591;SDS011;66891;46.884;17.436;2023-08-08T05:47:49;7.05;;;1.88;;
77591;SDS011;66891;46.884;17.436;2023-08-08T05:50:16;7.32;;;2.55;;
77591;SDS011;66891;46.884;17.436;2023-08-08T05:52:44;8.15;;;2.67;;
77591;SDS011;66891;46.884;17.436;2023-08-08T05:55:11;8.73;;;2.00;;
77591;SDS011;66891;46.884;17.436;2023-08-08T05:57:38;6.13;;;1.80;;
77591;SDS011;66891;46.884;17.436;2023-08-08T06:00:06;7.15;;;1.90;;
77591;SDS011;66891;46.884;17.436;2023-08-08T06:02:39;8.02;;;1.33;;
77591;SDS011;66891;46.884;17.436;2023-08-08T06:05:07;5.40;;;1.00;;
77591;SDS011;66891;46.884;17.436;2023-08-08T06:07:35;7.23;;;1.27;;
77591;SDS011;66891;46.884;17.436;2023-08-08T06:10:02;5.95;;;1.38;;
77591;SDS011;66891;46.884;17.436;2023-08-08T06:12:33;7.53;;;1.00;;
77591;SDS011;66891;46.884;17.436;2023-08-08T06:15:00;6.28;;;1.00;;
77591;SDS011;66891;46.884;17.436;2023-08-08T06:17:27;4.13;;;0.50;;
77591;SDS011;66891;46.884;17.436;2023-08-08T06:19:56;5.20;;;0.50;;
77591;SDS011;66891;46.884;17.436;2023-08-08T06:22:24;4.50;;;0.88;;
77591;SDS011;66891;46.884;17.436;2023-08-08T06:24:52;6.55;;;0.85;;
77591;SDS011;66891;46.884;17.436;2023-08-08T06:27:19;4.20;;;0.70;;
77591;SDS011;66891;46.884;17.436;2023-08-08T06:29:47;4.05;;;0.45;;
77591;SDS011;66891;46.884;17.436;2023-08-08T06:32:14;5.13;;;0.60;;
77591;SDS011;66891;46.884;17.436;2023-08-08T06:34:41;6.00;;;0.70;;
77591;SDS011;66891;46.884;17.436;2023-08-08T06:37:10;5.35;;;0.70;;
77591;SDS011;66891;46.884;17.436;2023-08-08T06:39:38;6.13;;;0.63;;
77591;SDS011;66891;46.884;17.436;2023-08-08T06:42:07;7.70;;;1.02;;
77591;SDS011;66891;46.884;17.436;2023-08-08T06:44:40;3.53;;;0.60;;
77591;SDS011;66891;46.884;17.436;2023-08-08T06:47:08;4.85;;;0.50;;
77591;SDS011;66891;46.884;17.436;2023-08-08T06:49:36;3.97;;;0.40;;
77591;SDS011;66891;46.884;17.436;2023-08-08T06:52:03;4.10;;;0.60;;
77591;SDS011;66891;46.884;17.436;2023-08-08T06:54:33;8.13;;;0.60;;
77591;SDS011;66891;46.884;17.436;2023-08-08T06:57:01;4.33;;;0.60;;
77591;SDS011;66891;46.884;17.436;2023-08-08T06:59:29;3.80;;;0.60;;
77591;SDS011;66891;46.884;17.436;2023-08-08T07:01:56;3.60;;;0.50;;
77591;SDS011;66891;46.884;17.436;2023-08-08T07:04:23;4.70;;;0.70;;
77591;SDS011;66891;46.884;17.436;2023-08-08T07:06:51;4.68;;;0.50;;
77591;SDS011;66891;46.884;17.436;2023-08-08T07:09:18;6.97;;;1.20;;
77591;SDS011;66891;46.884;17.436;2023-08-08T07:11:47;4.22;;;0.70;;
77591;SDS011;66891;46.884;17.436;2023-08-08T07:14:14;4.93;;;0.50;;
77591;SDS011;66891;46.884;17.436;2023-08-08T07:16:42;4.22;;;0.73;;
77591;SDS011;66891;46.884;17.436;2023-08-08T07:19:09;5.45;;;0.98;;
77591;SDS011;66891;46.884;17.436;2023-08-08T07:21:38;4.53;;;0.60;;
77591;SDS011;66891;46.884;17.436;2023-08-08T07:24:05;4.57;;;0.70;;
77591;SDS011;66891;46.884;17.436;2023-08-08T07:26:35;4.95;;;0.70;;
77591;SDS011;66891;46.884;17.436;2023-08-08T07:29:04;5.40;;;1.10;;
77591;SDS011;66891;46.884;17.436;2023-08-08T07:31:33;5.93;;;0.80;;
77591;SDS011;66891;46.884;17.436;2023-08-08T07:34:00;4.90;;;0.80;;
77591;SDS011;66891;46.884;17.436;2023-08-08T07:36:27;4.25;;;0.85;;
77591;SDS011;66891;46.884;17.436;2023-08-08T07:38:55;4.78;;;0.95;;
77591;SDS011;66891;46.884;17.436;2023-08-08T07:41:29;3.55;;;0.52;;
77591;SDS011;66891;46.884;17.436;2023-08-08T07:43:56;4.60;;;0.93;;
77591;SDS011;66891;46.884;17.436;2023-08-08T07:46:25;3.97;;;0.77;;
77591;SDS011;66891;46.884;17.436;2023-08-08T07:48:53;3.60;;;0.63;;
77591;SDS011;66891;46.884;17.436;2023-08-08T07:51:20;4.78;;;0.80;;
77591;SDS011;66891;46.884;17.436;2023-08-08T07:53:47;4.63;;;0.90;;
77591;SDS011;66891;46.884;17.436;2023-08-08T07:56:15;3.80;;;0.70;;
77591;SDS011;66891;46.884;17.436;2023-08-08T07:58:42;4.00;;;0.77;;
77591;SDS011;66891;46.884;17.436;2023-08-08T08:01:09;3.05;;;0.70;;
77591;SDS011;66891;46.884;17.436;2023-08-08T08:03:40;3.55;;;0.60;;
77591;SDS011;66891;46.884;17.436;2023-08-08T08:06:08;4.57;;;0.40;;
77591;SDS011;66891;46.884;17.436;2023-08-08T08:08:36;4.82;;;1.00;;
77591;SDS011;66891;46.884;17.436;2023-08-08T08:11:03;4.13;;;0.73;;
77591;SDS011;66891;46.884;17.436;2023-08-08T08:13:30;4.55;;;0.80;;
77591;SDS011;66891;46.884;17.436;2023-08-08T08:15:57;3.60;;;0.70;;
77591;SDS011;66891;46.884;17.436;2023-08-08T08:18:25;4.30;;;0.90;;
77591;SDS011;66891;46.884;17.436;2023-08-08T08:20:54;4.18;;;0.80;;
77591;SDS011;66891;46.884;17.436;2023-08-08T08:23:21;3.60;;;0.60;;
77591;SDS011;66891;46.884;17.436;2023-08-08T08:25:49;6.18;;;1.10;;
77591;SDS011;66891;46.884;17.436;2023-08-08T08:28:17;4.65;;;0.93;;
77591;SDS011;66891;46.884;17.436;2023-08-08T08:30:44;4.15;;;0.60;;
77591;SDS011;66891;46.884;17.436;2023-08-08T08:33:12;4.35;;;0.80;;
77591;SDS011;66891;46.884;17.436;2023-08-08T08:35:39;4.90;;;0.90;;
77591;SDS011;66891;46.884;17.436;2023-08-08T08:38:08;3.95;;;0.70;;
77591;SDS011;66891;46.884;17.436;2023-08-08T08:40:36;6.43;;;0.98;;
77591;SDS011;66891;46.884;17.436;2023-08-08T08:43:04;5.88;;;1.10;;
77591;SDS011;66891;46.884;17.436;2023-08-08T08:45:34;4.82;;;0.75;;
77591;SDS011;66891;46.884;17.436;2023-08-08T08:48:06;4.43;;;0.70;;
77591;SDS011;66891;46.884;17.436;2023-08-08T08:50:37;4.18;;;0.80;;
77591;SDS011;66891;46.884;17.436;2023-08-08T08:53:08;4.90;;;0.77;;
77591;SDS011;66891;46.884;17.436;2023-08-08T08:55:40;4.43;;;0.80;;
77591;SDS011;66891;46.884;17.436;2023-08-08T08:58:08;4.60;;;0.70;;
77591;SDS011;66891;46.884;17.436;2023-08-08T09:00:36;3.67;;;0.70;;
77591;SDS011;66891;46.884;17.436;2023-08-08T09:03:04;3.95;;;0.90;;
77591;SDS011;66891;46.884;17.436;2023-08-08T09:05:33;4.32;;;0.70;;
77591;SDS011;66891;46.884;17.436;2023-08-08T09:08:02;5.22;;;0.65;;
77591;SDS011;66891;46.884;17.436;2023-08-08T09:10:31;4.03;;;0.70;;
77591;SDS011;66891;46.884;17.436;2023-08-08T09:12:59;4.57;;;0.73;;
77591;SDS011;66891;46.884;17.436;2023-08-08T09:15:29;4.50;;;0.70;;
77591;SDS011;66891;46.884;17.436;2023-08-08T09:17:57;4.15;;;0.50;;
77591;SDS011;66891;46.884;17.436;2023-08-08T09:20:25;5.03;;;0.60;;
77591;SDS011;66891;46.884;17.436;2023-08-08T09:22:55;3.47;;;0.60;;
77591;SDS011;66891;46.884;17.436;2023-08-08T09:25:22;8.40;;;1.27;;
77591;SDS011;66891;46.884;17.436;2023-08-08T09:27:52;4.30;;;1.05;;
77591;SDS011;66891;46.884;17.436;2023-08-08T09:30:20;4.07;;;0.90;;
77591;SDS011;66891;46.884;17.436;2023-08-08T09:32:48;5.38;;;1.08;;
77591;SDS011;66891;46.884;17.436;2023-08-08T09:35:15;9.75;;;0.90;;
77591;SDS011;66891;46.884;17.436;2023-08-08T09:37:43;5.30;;;0.87;;
77591;SDS011;66891;46.884;17.436;2023-08-08T09:40:10;4.15;;;0.68;;
77591;SDS011;66891;46.884;17.436;2023-08-08T09:42:39;6.20;;;0.80;;
77591;SDS011;66891;46.884;17.436;2023-08-08T09:45:09;10.98;;;1.20;;
77591;SDS011;66891;46.884;17.436;2023-08-08T09:47:37;8.55;;;1.92;;
77591;SDS011;66891;46.884;17.436;2023-08-08T09:50:05;4.97;;;1.17;;
77591;SDS011;66891;46.884;17.436;2023-08-08T09:52:34;4.07;;;0.75;;
77591;SDS011;66891;46.884;17.436;2023-08-08T09:55:02;9.70;;;1.40;;
77591;SDS011;66891;46.884;17.436;2023-08-08T09:57:31;6.65;;;1.30;;
77591;SDS011;66891;46.884;17.436;2023-08-08T09:59:58;5.20;;;1.00;;
77591;SDS011;66891;46.884;17.436;2023-08-08T10:02:29;4.13;;;0.80;;
77591;SDS011;66891;46.884;17.436;2023-08-08T10:04:56;4.68;;;0.90;;
77591;SDS011;66891;46.884;17.436;2023-08-08T10:07:25;4.03;;;0.60;;
77591;SDS011;66891;46.884;17.436;2023-08-08T10:09:52;4.30;;;0.85;;
77591;SDS011;66891;46.884;17.436;2023-08-08T10:12:19;3.47;;;0.60;;
77591;SDS011;66891;46.884;17.436;2023-08-08T10:14:47;5.03;;;1.00;;
77591;SDS011;66891;46.884;17.436;2023-08-08T10:17:15;6.03;;;0.70;;
77591;SDS011;66891;46.884;17.436;2023-08-08T10:19:50;3.35;;;0.60;;
77591;SDS011;66891;46.884;17.436;2023-08-08T10:22:20;4.47;;;1.00;;
77591;SDS011;66891;46.884;17.436;2023-08-08T10:24:51;4.63;;;0.82;;
77591;SDS011;66891;46.884;17.436;2023-08-08T10:27:31;4.00;;;0.77;;
77591;SDS011;66891;46.884;17.436;2023-08-08T10:30:03;4.00;;;1.00;;
77591;SDS011;66891;46.884;17.436;2023-08-08T10:32:38;6.05;;;1.20;;
77591;SDS011;66891;46.884;17.436;2023-08-08T10:35:08;4.63;;;0.80;;
77591;SDS011;66891;46.884;17.436;2023-08-08T10:37:37;5.78;;;0.95;;
77591;SDS011;66891;46.884;17.436;2023-08-08T10:40:05;4.13;;;0.90;;
77591;SDS011;66891;46.884;17.436;2023-08-08T10:42:40;4.22;;;0.70;;
77591;SDS011;66891;46.884;17.436;2023-08-08T10:45:10;3.83;;;0.65;;
77591;SDS011;66891;46.884;17.436;2023-08-08T10:47:41;4.28;;;0.80;;
77591;SDS011;66891;46.884;17.436;2023-08-08T10:50:11;4.63;;;0.85;;
77591;SDS011;66891;46.884;17.436;2023-08-08T10:52:50;4.30;;;0.80;;
77591;SDS011;66891;46.884;17.436;2023-08-08T10:55:19;5.60;;;0.80;;
77591;SDS011;66891;46.884;17.436;2023-08-08T10:57:57;3.88;;;0.77;;
77591;SDS011;66891;46.884;17.436;2023-08-08T11:00:27;7.53;;;0.95;;
77591;SDS011;66891;46.884;17.436;2023-08-08T11:02:56;3.60;;;0.90;;
77591;SDS011;66891;46.884;17.436;2023-08-08T11:05:27;6.37;;;1.33;;
77591;SDS011;66891;46.884;17.436;2023-08-08T11:07:56;3.22;;;0.70;;
77591;SDS011;66891;46.884;17.436;2023-08-08T11:10:24;3.47;;;0.70;;
77591;SDS011;66891;46.884;17.436;2023-08-08T11:12:58;4.82;;;1.15;;
77591;SDS011;66891;46.884;17.436;2023-08-08T11:15:27;4.47;;;1.17;;
77591;SDS011;66891;46.884;17.436;2023-08-08T11:17:56;3.90;;;1.03;;
77591;SDS011;66891;46.884;17.436;2023-08-08T11:20:23;4.22;;;0.93;;
77591;SDS011;66891;46.884;17.436;2023-08-08T11:22:56;6.55;;;1.58;;
77591;SDS011;66891;46.884;17.436;2023-08-08T11:25:25;4.40;;;1.00;;
77591;SDS011;66891;46.884;17.436;2023-08-08T11:27:54;5.50;;;1.20;;
77591;SDS011;66891;46.884;17.436;2023-08-08T11:30:22;4.90;;;1.37;;
77591;SDS011;66891;46.884;17.436;2023-08-08T11:32:50;4.03;;;1.10;;
77591;SDS011;66891;46.884;17.436;2023-08-08T11:35:22;3.63;;;0.60;;
77591;SDS011;66891;46.884;17.436;2023-08-08T11:37:54;3.97;;;1.00;;
77591;SDS011;66891;46.884;17.436;2023-08-08T11:40:25;4.82;;;1.00;;
77591;SDS011;66891;46.884;17.436;2023-08-08T11:42:54;4.00;;;1.20;;
77591;SDS011;66891;46.884;17.436;2023-08-08T11:45:23;4.13;;;1.15;;
77591;SDS011;66891;46.884;17.436;2023-08-08T11:47:53;4.80;;;1.02;;
77591;SDS011;66891;46.884;17.436;2023-08-08T11:50:22;3.83;;;0.98;;
77591;SDS011;66891;46.884;17.436;2023-08-08T11:52:52;3.90;;;0.93;;
77591;SDS011;66891;46.884;17.436;2023-08-08T11:55:26;4.37;;;1.10;;
77591;SDS011;66891;46.884;17.436;2023-08-08T11:57:57;4.00;;;0.95;;
77591;SDS011;66891;46.884;17.436;2023-08-08T12:00:27;4.68;;;1.30;;
77591;SDS011;66891;46.884;17.436;2023-08-08T12:03:00;4.47;;;1.05;;
77591;SDS011;66891;46.884;17.436;2023-08-08T12:05:30;5.80;;;1.50;;
77591;SDS011;66891;46.884;17.436;2023-08-08T12:08:05;4.53;;;1.30;;
77591;SDS011;66891;46.884;17.436;2023-08-08T12:10:33;4.30;;;1.45;;
77591;SDS011;66891;46.884;17.436;2023-08-08T12:13:01;4.38;;;1.35;;
77591;SDS011;66891;46.884;17.436;2023-08-08T12:15:28;4.30;;;1.30;;
77591;SDS011;66891;46.884;17.436;2023-08-08T12:17:57;4.47;;;1.95;;
77591;SDS011;66891;46.884;17.436;2023-08-08T12:20:26;6.00;;;1.57;;
77591;SDS011;66891;46.884;17.436;2023-08-08T12:22:54;5.20;;;1.80;;
77591;SDS011;66891;46.884;17.436;2023-08-08T12:25:23;3.88;;;0.90;;
77591;SDS011;66891;46.884;17.436;2023-08-08T12:27:50;5.25;;;1.55;;
77591;SDS011;66891;46.884;17.436;2023-08-08T12:30:19;4.22;;;1.52;;
77591;SDS011;66891;46.884;17.436;2023-08-08T12:32:46;4.30;;;1.97;;
77591;SDS011;66891;46.884;17.436;2023-08-08T12:35:14;5.10;;;2.22;;
77591;SDS011;66891;46.884;17.436;2023-08-08T12:37:43;4.55;;;1.73;;
77591;SDS011;66891;46.884;17.436;2023-08-08T12:40:10;4.32;;;1.88;;
77591;SDS011;66891;46.884;17.436;2023-08-08T12:42:40;4.45;;;1.60;;
77591;SDS011;66891;46.884;17.436;2023-08-08T12:45:08;5.73;;;1.40;;
77591;SDS011;66891;46.884;17.436;2023-08-08T12:47:36;3.60;;;1.05;;
77591;SDS011;66891;46.884;17.436;2023-08-08T12:50:04;3.95;;;1.08;;
77591;SDS011;66891;46.884;17.436;2023-08-08T12:52:33;4.30;;;1.90;;
77591;SDS011;66891;46.884;17.436;2023-08-08T12:55:01;4.50;;;1.23;;
77591;SDS011;66891;46.884;17.436;2023-08-08T12:57:30;5.50;;;1.43;;
77591;SDS011;66891;46.884;17.436;2023-08-08T12:59:59;4.85;;;1.58;;
77591;SDS011;66891;46.884;17.436;2023-08-08T13:02:27;5.30;;;1.65;;
77591;SDS011;66891;46.884;17.436;2023-08-08T13:04:54;3.88;;;1.45;;
77591;SDS011;66891;46.884;17.436;2023-08-08T13:07:22;4.57;;;1.80;;
77591;SDS011;66891;46.884;17.436;2023-08-08T13:09:49;4.27;;;1.33;;
77591;SDS011;66891;46.884;17.436;2023-08-08T13:12:17;4.78;;;1.55;;
77591;SDS011;66891;46.884;17.436;2023-08-08T13:14:44;4.35;;;1.27;;
77591;SDS011;66891;46.884;17.436;2023-08-08T13:17:14;5.07;;;1.30;;
77591;SDS011;66891;46.884;17.436;2023-08-08T13:19:41;4.10;;;0.98;;
77591;SDS011;66891;46.884;17.436;2023-08-08T13:22:08;3.77;;;1.00;;
77591;SDS011;66891;46.884;17.436;2023-08-08T13:24:36;4.93;;;1.35;;
77591;SDS011;66891;46.884;17.436;2023-08-08T13:27:04;4.95;;;1.27;;
77591;SDS011;66891;46.884;17.436;2023-08-08T13:29:32;4.18;;;1.10;;
77591;SDS011;66891;46.884;17.436;2023-08-08T13:31:59;4.93;;;1.50;;
77591;SDS011;66891;46.884;17.436;2023-08-08T13:34:28;3.80;;;0.70;;
77591;SDS011;66891;46.884;17.436;2023-08-08T13:36:56;3.78;;;0.70;;
77591;SDS011;66891;46.884;17.436;2023-08-08T13:39:23;4.25;;;1.17;;
77591;SDS011;66891;46.884;17.436;2023-08-08T13:41:50;4.32;;;0.98;;
77591;SDS011;66891;46.884;17.436;2023-08-08T13:44:18;5.30;;;1.20;;
77591;SDS011;66891;46.884;17.436;2023-08-08T13:46:45;4.47;;;1.33;;
77591;SDS011;66891;46.884;17.436;2023-08-08T13:49:13;5.00;;;1.20;;
77591;SDS011;66891;46.884;17.436;2023-08-08T13:51:42;4.13;;;0.68;;
77591;SDS011;66891;46.884;17.436;2023-08-08T13:54:13;4.50;;;1.02;;
77591;SDS011;66891;46.884;17.436;2023-08-08T13:56:41;3.75;;;1.10;;
77591;SDS011;66891;46.884;17.436;2023-08-08T13:59:08;4.87;;;0.70;;
77591;SDS011;66891;46.884;17.436;2023-08-08T14:01:36;3.90;;;0.90;;
77591;SDS011;66891;46.884;17.436;2023-08-08T14:04:03;5.32;;;0.88;;
77591;SDS011;66891;46.884;17.436;2023-08-08T14:06:31;4.18;;;0.68;;
77591;SDS011;66891;46.884;17.436;2023-08-08T14:09:00;6.50;;;1.10;;
77591;SDS011;66891;46.884;17.436;2023-08-08T14:11:27;4.27;;;1.17;;
77591;SDS011;66891;46.884;17.436;2023-08-08T14:13:55;5.10;;;0.85;;
77591;SDS011;66891;46.884;17.436;2023-08-08T14:16:22;4.72;;;1.27;;
77591;SDS011;66891;46.884;17.436;2023-08-08T14:18:50;3.65;;;0.90;;
77591;SDS011;66891;46.884;17.436;2023-08-08T14:21:17;3.95;;;1.02;;
77591;SDS011;66891;46.884;17.436;2023-08-08T14:23:45;4.27;;;0.83;;
77591;SDS011;66891;46.884;17.436;2023-08-08T14:26:15;4.18;;;0.70;;
77591;SDS011;66891;46.884;17.436;2023-08-08T14:28:42;4.10;;;1.10;;
77591;SDS011;66891;46.884;17.436;2023-08-08T14:31:10;4.07;;;0.90;;
77591;SDS011;66891;46.884;17.436;2023-08-08T14:33:37;3.80;;;0.90;;
77591;SDS011;66891;46.884;17.436;2023-08-08T14:36:05;4.03;;;0.87;;
77591;SDS011;66891;46.884;17.436;2023-08-08T14:38:34;4.43;;;1.10;;
77591;SDS011;66891;46.884;17.436;2023-08-08T14:41:02;3.13;;;0.77;;